sensor_id;sensor_type;location;lat;lon;timestamp;P1;durP1;ratioP1;P2;durP2;ratioP2
17937;SDS011;16051;53.024;8.630;2023-02-15T00:02:33;13.73;;;9.83;;
17937;SDS011;16051;53.024;8.630;2023-02-15T00:06:35;14.43;;;10.43;;
17937;SDS011;16051;53.024;8.630;2023-02-15T00:10:37;15.23;;;10.10;;
17937;SDS011;16051;53.024;8.630;2023-02-15T00:14:39;14.43;;;10.03;;
17937;SDS011;16051;53.024;8.630;2023-02-15T00:18:43;15.07;;;10.90;;
17937;SDS011;16051;53.024;8.630;2023-02-15T00:22:45;12.53;;;9.87;;
17937;SDS011;16051;53.024;8.630;2023-02-15T00:26:47;17.53;;;12.73;;
17937;SDS011;16051;53.024;8.630;2023-02-15T00:30:50;11.67;;;7.97;;
17937;SDS011;16051;53.024;8.630;2023-02-15T00:34:53;9.67;;;7.13;;
17937;SDS011;16051;53.024;8.630;2023-02-15T00:38:55;10.60;;;6.97;;
17937;SDS011;16051;53.024;8.630;2023-02-15T00:42:58;7.70;;;6.43;;
17937;SDS011;16051;53.024;8.630;2023-02-15T00:47:08;8.33;;;7.30;;
17937;SDS011;16051;53.024;8.630;2023-02-15T00:51:12;8.43;;;7.30;;
17937;SDS011;16051;53.024;8.630;2023-02-15T00:55:14;8.90;;;7.17;;
17937;SDS011;16051;53.024;8.630;2023-02-15T00:59:16;18.13;;;7.60;;
17937;SDS011;16051;53.024;8.630;2023-02-15T01:03:19;9.47;;;7.60;;
17937;SDS011;16051;53.024;8.630;2023-02-15T01:07:23;8.43;;;7.23;;
17937;SDS011;16051;53.024;8.630;2023-02-15T01:11:25;8.33;;;7.03;;
17937;SDS011;16051;53.024;8.630;2023-02-15T01:15:28;7.63;;;6.53;;
17937;SDS011;16051;53.024;8.630;2023-02-15T01:19:30;7.60;;;6.43;;
17937;SDS011;16051;53.024;8.630;2023-02-15T01:23:35;8.53;;;6.83;;
17937;SDS011;16051;53.024;8.630;2023-02-15T01:27:37;8.63;;;6.80;;
17937;SDS011;16051;53.024;8.630;2023-02-15T01:31:42;7.80;;;6.70;;
17937;SDS011;16051;53.024;8.630;2023-02-15T01:35:56;9.20;;;6.90;;
17937;SDS011;16051;53.024;8.630;2023-02-15T01:40:00;8.87;;;7.13;;
17937;SDS011;16051;53.024;8.630;2023-02-15T01:44:03;7.97;;;6.73;;
17937;SDS011;16051;53.024;8.630;2023-02-15T01:48:38;7.47;;;6.37;;
17937;SDS011;16051;53.024;8.630;2023-02-15T01:52:49;8.50;;;7.27;;
17937;SDS011;16051;53.024;8.630;2023-02-15T01:56:58;7.70;;;6.57;;
17937;SDS011;16051;53.024;8.630;2023-02-15T02:01:08;8.03;;;6.63;;
17937;SDS011;16051;53.024;8.630;2023-02-15T02:05:11;8.33;;;6.47;;
17937;SDS011;16051;53.024;8.630;2023-02-15T02:09:13;8.60;;;7.43;;
17937;SDS011;16051;53.024;8.630;2023-02-15T02:17:37;10.37;;;6.97;;
17937;SDS011;16051;53.024;8.630;2023-02-15T02:22:07;8.60;;;7.17;;
17937;SDS011;16051;53.024;8.630;2023-02-15T02:27:05;9.40;;;7.20;;
17937;SDS011;16051;53.024;8.630;2023-02-15T02:31:31;9.40;;;7.43;;
17937;SDS011;16051;53.024;8.630;2023-02-15T02:36:17;12.43;;;7.50;;
17937;SDS011;16051;53.024;8.630;2023-02-15T02:44:51;8.43;;;7.13;;
17937;SDS011;16051;53.024;8.630;2023-02-15T02:48:59;8.27;;;7.03;;
17937;SDS011;16051;53.024;8.630;2023-02-15T02:53:04;8.40;;;7.50;;
17937;SDS011;16051;53.024;8.630;2023-02-15T02:57:06;8.73;;;7.83;;
17937;SDS011;16051;53.024;8.630;2023-02-15T03:01:15;9.10;;;6.87;;
17937;SDS011;16051;53.024;8.630;2023-02-15T03:05:24;15.33;;;8.10;;
17937;SDS011;16051;53.024;8.630;2023-02-15T03:09:33;8.17;;;7.33;;
17937;SDS011;16051;53.024;8.630;2023-02-15T03:13:42;10.73;;;7.57;;
17937;SDS011;16051;53.024;8.630;2023-02-15T03:17:48;10.00;;;7.63;;
17937;SDS011;16051;53.024;8.630;2023-02-15T03:21:58;9.23;;;7.53;;
17937;SDS011;16051;53.024;8.630;2023-02-15T03:26:10;8.60;;;7.53;;
17937;SDS011;16051;53.024;8.630;2023-02-15T03:30:13;10.20;;;8.07;;
17937;SDS011;16051;53.024;8.630;2023-02-15T03:34:20;11.00;;;8.07;;
17937;SDS011;16051;53.024;8.630;2023-02-15T03:38:23;10.17;;;7.60;;
17937;SDS011;16051;53.024;8.630;2023-02-15T03:42:35;10.73;;;7.90;;
17937;SDS011;16051;53.024;8.630;2023-02-15T03:51:00;9.77;;;8.00;;
17937;SDS011;16051;53.024;8.630;2023-02-15T03:55:25;10.13;;;8.23;;
17937;SDS011;16051;53.024;8.630;2023-02-15T03:59:30;9.83;;;7.90;;
17937;SDS011;16051;53.024;8.630;2023-02-15T04:03:51;11.00;;;8.83;;
17937;SDS011;16051;53.024;8.630;2023-02-15T04:08:00;11.67;;;9.50;;
17937;SDS011;16051;53.024;8.630;2023-02-15T04:12:03;10.47;;;8.30;;
17937;SDS011;16051;53.024;8.630;2023-02-15T04:16:05;10.47;;;8.43;;
17937;SDS011;16051;53.024;8.630;2023-02-15T04:20:08;13.03;;;9.50;;
17937;SDS011;16051;53.024;8.630;2023-02-15T04:24:28;11.10;;;9.03;;
17937;SDS011;16051;53.024;8.630;2023-02-15T04:28:48;12.63;;;8.57;;
17937;SDS011;16051;53.024;8.630;2023-02-15T04:32:51;11.67;;;8.40;;
17937;SDS011;16051;53.024;8.630;2023-02-15T04:36:56;10.70;;;8.37;;
17937;SDS011;16051;53.024;8.630;2023-02-15T04:40:58;12.17;;;8.63;;
17937;SDS011;16051;53.024;8.630;2023-02-15T04:49:29;12.60;;;9.03;;
17937;SDS011;16051;53.024;8.630;2023-02-15T04:53:31;10.87;;;8.67;;
17937;SDS011;16051;53.024;8.630;2023-02-15T04:57:33;10.73;;;8.30;;
17937;SDS011;16051;53.024;8.630;2023-02-15T05:01:36;12.13;;;9.23;;
17937;SDS011;16051;53.024;8.630;2023-02-15T05:05:39;11.30;;;9.43;;
17937;SDS011;16051;53.024;8.630;2023-02-15T05:09:41;11.17;;;8.03;;
17937;SDS011;16051;53.024;8.630;2023-02-15T05:13:57;10.90;;;8.03;;
17937;SDS011;16051;53.024;8.630;2023-02-15T05:17:59;11.27;;;8.40;;
17937;SDS011;16051;53.024;8.630;2023-02-15T05:22:02;11.73;;;8.53;;
17937;SDS011;16051;53.024;8.630;2023-02-15T05:26:05;12.33;;;9.13;;
17937;SDS011;16051;53.024;8.630;2023-02-15T05:30:29;11.57;;;9.03;;
17937;SDS011;16051;53.024;8.630;2023-02-15T05:34:32;13.07;;;9.40;;
17937;SDS011;16051;53.024;8.630;2023-02-15T05:38:35;13.07;;;9.70;;
17937;SDS011;16051;53.024;8.630;2023-02-15T05:42:38;12.30;;;8.57;;
17937;SDS011;16051;53.024;8.630;2023-02-15T05:46:52;10.73;;;8.90;;
17937;SDS011;16051;53.024;8.630;2023-02-15T05:50:58;13.73;;;9.50;;
17937;SDS011;16051;53.024;8.630;2023-02-15T05:55:15;14.67;;;10.27;;
17937;SDS011;16051;53.024;8.630;2023-02-15T05:59:18;13.67;;;9.70;;
17937;SDS011;16051;53.024;8.630;2023-02-15T06:03:20;12.57;;;8.47;;
17937;SDS011;16051;53.024;8.630;2023-02-15T06:07:22;11.63;;;8.97;;
17937;SDS011;16051;53.024;8.630;2023-02-15T06:11:26;12.03;;;9.20;;
17937;SDS011;16051;53.024;8.630;2023-02-15T06:15:28;12.50;;;9.57;;
17937;SDS011;16051;53.024;8.630;2023-02-15T06:19:30;11.90;;;8.90;;
17937;SDS011;16051;53.024;8.630;2023-02-15T06:23:32;12.27;;;9.83;;
17937;SDS011;16051;53.024;8.630;2023-02-15T06:27:36;14.77;;;10.00;;
17937;SDS011;16051;53.024;8.630;2023-02-15T06:31:41;12.37;;;8.97;;
17937;SDS011;16051;53.024;8.630;2023-02-15T06:35:44;11.80;;;8.83;;
17937;SDS011;16051;53.024;8.630;2023-02-15T06:39:46;12.40;;;9.03;;
17937;SDS011;16051;53.024;8.630;2023-02-15T06:43:50;12.77;;;9.63;;
17937;SDS011;16051;53.024;8.630;2023-02-15T06:47:52;13.00;;;9.23;;
17937;SDS011;16051;53.024;8.630;2023-02-15T06:51:54;12.53;;;8.93;;
17937;SDS011;16051;53.024;8.630;2023-02-15T06:56:00;12.73;;;9.30;;
17937;SDS011;16051;53.024;8.630;2023-02-15T07:00:08;11.87;;;8.70;;
17937;SDS011;16051;53.024;8.630;2023-02-15T07:04:12;12.87;;;9.00;;
17937;SDS011;16051;53.024;8.630;2023-02-15T07:08:14;11.77;;;8.67;;
17937;SDS011;16051;53.024;8.630;2023-02-15T07:12:16;18.23;;;12.80;;
17937;SDS011;16051;53.024;8.630;2023-02-15T07:20:57;15.03;;;10.83;;
17937;SDS011;16051;53.024;8.630;2023-02-15T07:24:59;13.03;;;10.07;;
17937;SDS011;16051;53.024;8.630;2023-02-15T07:29:01;12.37;;;9.03;;
17937;SDS011;16051;53.024;8.630;2023-02-15T07:33:05;11.77;;;8.63;;
17937;SDS011;16051;53.024;8.630;2023-02-15T07:37:27;13.77;;;9.70;;
17937;SDS011;16051;53.024;8.630;2023-02-15T07:41:29;11.93;;;9.77;;
17937;SDS011;16051;53.024;8.630;2023-02-15T07:45:32;13.73;;;9.83;;
17937;SDS011;16051;53.024;8.630;2023-02-15T07:49:36;13.80;;;10.47;;
17937;SDS011;16051;53.024;8.630;2023-02-15T07:53:38;16.20;;;10.20;;
17937;SDS011;16051;53.024;8.630;2023-02-15T07:57:41;17.37;;;12.07;;
17937;SDS011;16051;53.024;8.630;2023-02-15T08:01:45;14.97;;;10.40;;
17937;SDS011;16051;53.024;8.630;2023-02-15T08:05:48;13.67;;;10.23;;
17937;SDS011;16051;53.024;8.630;2023-02-15T08:09:50;14.97;;;9.80;;
17937;SDS011;16051;53.024;8.630;2023-02-15T08:14:13;12.53;;;9.07;;
17937;SDS011;16051;53.024;8.630;2023-02-15T08:18:16;12.97;;;9.80;;
17937;SDS011;16051;53.024;8.630;2023-02-15T08:22:20;12.43;;;10.10;;
17937;SDS011;16051;53.024;8.630;2023-02-15T08:26:23;11.87;;;9.40;;
17937;SDS011;16051;53.024;8.630;2023-02-15T08:30:27;13.70;;;10.00;;
17937;SDS011;16051;53.024;8.630;2023-02-15T08:34:30;13.20;;;10.07;;
17937;SDS011;16051;53.024;8.630;2023-02-15T08:38:36;13.77;;;9.77;;
17937;SDS011;16051;53.024;8.630;2023-02-15T08:42:39;14.00;;;10.63;;
17937;SDS011;16051;53.024;8.630;2023-02-15T08:46:42;15.47;;;11.53;;
17937;SDS011;16051;53.024;8.630;2023-02-15T08:50:46;15.70;;;10.87;;
17937;SDS011;16051;53.024;8.630;2023-02-15T08:59:12;16.67;;;11.83;;
17937;SDS011;16051;53.024;8.630;2023-02-15T09:03:17;16.57;;;11.20;;
17937;SDS011;16051;53.024;8.630;2023-02-15T09:07:19;19.07;;;12.97;;
17937;SDS011;16051;53.024;8.630;2023-02-15T09:11:23;18.70;;;12.33;;
17937;SDS011;16051;53.024;8.630;2023-02-15T09:15:29;15.30;;;12.30;;
17937;SDS011;16051;53.024;8.630;2023-02-15T09:19:32;20.17;;;13.27;;
17937;SDS011;16051;53.024;8.630;2023-02-15T09:23:35;18.27;;;13.00;;
17937;SDS011;16051;53.024;8.630;2023-02-15T09:27:39;21.03;;;15.03;;
17937;SDS011;16051;53.024;8.630;2023-02-15T09:31:51;20.53;;;14.80;;
17937;SDS011;16051;53.024;8.630;2023-02-15T09:35:53;17.70;;;13.77;;
17937;SDS011;16051;53.024;8.630;2023-02-15T09:40:04;20.57;;;15.50;;
17937;SDS011;16051;53.024;8.630;2023-02-15T09:44:30;24.37;;;16.40;;
17937;SDS011;16051;53.024;8.630;2023-02-15T09:49:06;23.20;;;16.17;;
17937;SDS011;16051;53.024;8.630;2023-02-15T09:53:24;22.37;;;16.73;;
17937;SDS011;16051;53.024;8.630;2023-02-15T09:57:53;25.37;;;17.90;;
17937;SDS011;16051;53.024;8.630;2023-02-15T10:02:24;28.07;;;18.80;;
17937;SDS011;16051;53.024;8.630;2023-02-15T10:06:44;29.53;;;19.87;;
17937;SDS011;16051;53.024;8.630;2023-02-15T10:11:07;28.20;;;19.10;;
17937;SDS011;16051;53.024;8.630;2023-02-15T10:15:40;27.97;;;19.23;;
17937;SDS011;16051;53.024;8.630;2023-02-15T10:20:10;24.63;;;17.87;;
17937;SDS011;16051;53.024;8.630;2023-02-15T10:28:54;25.43;;;17.60;;
17937;SDS011;16051;53.024;8.630;2023-02-15T10:33:02;23.23;;;17.13;;
17937;SDS011;16051;53.024;8.630;2023-02-15T10:37:20;24.83;;;17.27;;
17937;SDS011;16051;53.024;8.630;2023-02-15T10:41:41;26.13;;;18.30;;
17937;SDS011;16051;53.024;8.630;2023-02-15T10:45:54;24.87;;;16.57;;
17937;SDS011;16051;53.024;8.630;2023-02-15T10:54:44;24.73;;;18.27;;
17937;SDS011;16051;53.024;8.630;2023-02-15T10:58:58;22.53;;;17.30;;
17937;SDS011;16051;53.024;8.630;2023-02-15T11:03:24;26.37;;;17.77;;
17937;SDS011;16051;53.024;8.630;2023-02-15T11:07:43;20.50;;;16.73;;
17937;SDS011;16051;53.024;8.630;2023-02-15T11:11:51;31.90;;;18.43;;
17937;SDS011;16051;53.024;8.630;2023-02-15T11:16:00;26.57;;;18.80;;
17937;SDS011;16051;53.024;8.630;2023-02-15T11:24:46;22.90;;;18.03;;
17937;SDS011;16051;53.024;8.630;2023-02-15T11:28:51;24.60;;;18.77;;
17937;SDS011;16051;53.024;8.630;2023-02-15T11:32:58;23.67;;;17.67;;
17937;SDS011;16051;53.024;8.630;2023-02-15T11:37:05;25.13;;;17.60;;
17937;SDS011;16051;53.024;8.630;2023-02-15T11:41:17;23.87;;;18.10;;
17937;SDS011;16051;53.024;8.630;2023-02-15T11:45:28;26.37;;;18.83;;
17937;SDS011;16051;53.024;8.630;2023-02-15T11:49:32;21.87;;;17.27;;
17937;SDS011;16051;53.024;8.630;2023-02-15T11:58:06;24.30;;;18.47;;
17937;SDS011;16051;53.024;8.630;2023-02-15T12:02:23;24.73;;;19.20;;
17937;SDS011;16051;53.024;8.630;2023-02-15T12:06:28;25.43;;;19.27;;
17937;SDS011;16051;53.024;8.630;2023-02-15T12:10:34;29.40;;;20.67;;
17937;SDS011;16051;53.024;8.630;2023-02-15T12:14:46;30.20;;;21.43;;
17937;SDS011;16051;53.024;8.630;2023-02-15T12:18:51;28.63;;;20.60;;
17937;SDS011;16051;53.024;8.630;2023-02-15T12:22:59;30.17;;;21.70;;
17937;SDS011;16051;53.024;8.630;2023-02-15T12:27:04;30.20;;;21.27;;
17937;SDS011;16051;53.024;8.630;2023-02-15T12:31:24;28.67;;;21.27;;
17937;SDS011;16051;53.024;8.630;2023-02-15T12:35:34;32.57;;;22.60;;
17937;SDS011;16051;53.024;8.630;2023-02-15T12:44:23;31.53;;;22.57;;
17937;SDS011;16051;53.024;8.630;2023-02-15T12:48:48;33.13;;;24.63;;
17937;SDS011;16051;53.024;8.630;2023-02-15T12:53:13;31.50;;;23.00;;
17937;SDS011;16051;53.024;8.630;2023-02-15T12:57:27;29.57;;;22.60;;
17937;SDS011;16051;53.024;8.630;2023-02-15T13:01:32;33.20;;;23.43;;
17937;SDS011;16051;53.024;8.630;2023-02-15T13:05:46;29.80;;;21.27;;
17937;SDS011;16051;53.024;8.630;2023-02-15T13:10:04;29.73;;;21.33;;
17937;SDS011;16051;53.024;8.630;2023-02-15T13:18:33;30.03;;;20.40;;
17937;SDS011;16051;53.024;8.630;2023-02-15T13:22:40;28.17;;;20.50;;
17937;SDS011;16051;53.024;8.630;2023-02-15T13:26:48;28.87;;;19.10;;
17937;SDS011;16051;53.024;8.630;2023-02-15T13:30:58;30.13;;;18.50;;
17937;SDS011;16051;53.024;8.630;2023-02-15T13:35:01;28.80;;;19.07;;
17937;SDS011;16051;53.024;8.630;2023-02-15T13:39:15;27.30;;;18.50;;
17937;SDS011;16051;53.024;8.630;2023-02-15T13:43:35;28.83;;;17.50;;
17937;SDS011;16051;53.024;8.630;2023-02-15T13:47:50;25.50;;;17.60;;
17937;SDS011;16051;53.024;8.630;2023-02-15T13:52:04;26.23;;;18.17;;
17937;SDS011;16051;53.024;8.630;2023-02-15T13:56:32;24.80;;;17.03;;
17937;SDS011;16051;53.024;8.630;2023-02-15T14:00:58;23.40;;;16.10;;
17937;SDS011;16051;53.024;8.630;2023-02-15T14:05:21;23.67;;;16.33;;
17937;SDS011;16051;53.024;8.630;2023-02-15T14:09:43;23.10;;;16.37;;
17937;SDS011;16051;53.024;8.630;2023-02-15T14:14:08;22.13;;;15.53;;
17937;SDS011;16051;53.024;8.630;2023-02-15T14:18:38;22.70;;;16.10;;
17937;SDS011;16051;53.024;8.630;2023-02-15T14:22:50;21.93;;;16.07;;
17937;SDS011;16051;53.024;8.630;2023-02-15T14:27:13;22.60;;;16.07;;
17937;SDS011;16051;53.024;8.630;2023-02-15T14:31:30;24.47;;;16.47;;
17937;SDS011;16051;53.024;8.630;2023-02-15T14:35:48;24.77;;;16.77;;
17937;SDS011;16051;53.024;8.630;2023-02-15T14:39:52;24.57;;;17.00;;
17937;SDS011;16051;53.024;8.630;2023-02-15T14:44:21;27.03;;;17.73;;
17937;SDS011;16051;53.024;8.630;2023-02-15T14:48:38;21.93;;;16.83;;
17937;SDS011;16051;53.024;8.630;2023-02-15T14:57:43;25.53;;;17.87;;
17937;SDS011;16051;53.024;8.630;2023-02-15T15:02:07;24.23;;;17.20;;
17937;SDS011;16051;53.024;8.630;2023-02-15T15:06:23;22.00;;;16.40;;
17937;SDS011;16051;53.024;8.630;2023-02-15T15:10:36;24.13;;;17.00;;
17937;SDS011;16051;53.024;8.630;2023-02-15T15:14:43;24.87;;;17.27;;
17937;SDS011;16051;53.024;8.630;2023-02-15T15:18:46;22.23;;;16.07;;
17937;SDS011;16051;53.024;8.630;2023-02-15T15:22:50;22.37;;;15.53;;
17937;SDS011;16051;53.024;8.630;2023-02-15T15:27:37;21.07;;;15.53;;
17937;SDS011;16051;53.024;8.630;2023-02-15T15:31:54;22.03;;;15.47;;
17937;SDS011;16051;53.024;8.630;2023-02-15T15:36:06;23.53;;;16.07;;
17937;SDS011;16051;53.024;8.630;2023-02-15T15:40:54;23.30;;;16.63;;
17937;SDS011;16051;53.024;8.630;2023-02-15T15:45:37;25.60;;;16.47;;
17937;SDS011;16051;53.024;8.630;2023-02-15T15:54:20;22.47;;;15.57;;
17937;SDS011;16051;53.024;8.630;2023-02-15T15:58:25;24.10;;;15.67;;
17937;SDS011;16051;53.024;8.630;2023-02-15T16:02:49;20.87;;;14.50;;
17937;SDS011;16051;53.024;8.630;2023-02-15T16:06:53;19.97;;;14.93;;
17937;SDS011;16051;53.024;8.630;2023-02-15T16:10:55;19.93;;;14.37;;
17937;SDS011;16051;53.024;8.630;2023-02-15T16:15:04;23.17;;;15.80;;
17937;SDS011;16051;53.024;8.630;2023-02-15T16:19:19;21.10;;;15.73;;
17937;SDS011;16051;53.024;8.630;2023-02-15T16:23:35;20.10;;;15.23;;
17937;SDS011;16051;53.024;8.630;2023-02-15T16:28:05;23.50;;;16.20;;
17937;SDS011;16051;53.024;8.630;2023-02-15T16:32:16;18.80;;;14.23;;
17937;SDS011;16051;53.024;8.630;2023-02-15T16:36:21;21.47;;;14.93;;
17937;SDS011;16051;53.024;8.630;2023-02-15T16:40:39;23.40;;;14.80;;
17937;SDS011;16051;53.024;8.630;2023-02-15T16:44:53;20.70;;;14.77;;
17937;SDS011;16051;53.024;8.630;2023-02-15T16:49:14;21.80;;;14.87;;
17937;SDS011;16051;53.024;8.630;2023-02-15T16:53:22;23.70;;;15.07;;
17937;SDS011;16051;53.024;8.630;2023-02-15T16:57:29;22.23;;;14.97;;
17937;SDS011;16051;53.024;8.630;2023-02-15T17:01:36;20.43;;;14.40;;
17937;SDS011;16051;53.024;8.630;2023-02-15T17:05:40;21.20;;;14.93;;
17937;SDS011;16051;53.024;8.630;2023-02-15T17:10:15;21.03;;;14.37;;
17937;SDS011;16051;53.024;8.630;2023-02-15T17:14:38;22.57;;;15.57;;
17937;SDS011;16051;53.024;8.630;2023-02-15T17:18:44;22.83;;;15.10;;
17937;SDS011;16051;53.024;8.630;2023-02-15T17:22:47;21.23;;;14.80;;
17937;SDS011;16051;53.024;8.630;2023-02-15T17:26:53;22.77;;;14.77;;
17937;SDS011;16051;53.024;8.630;2023-02-15T17:31:02;28.33;;;17.43;;
17937;SDS011;16051;53.024;8.630;2023-02-15T17:35:15;20.17;;;14.70;;
17937;SDS011;16051;53.024;8.630;2023-02-15T17:39:21;23.90;;;15.77;;
17937;SDS011;16051;53.024;8.630;2023-02-15T17:43:23;25.33;;;17.33;;
17937;SDS011;16051;53.024;8.630;2023-02-15T17:47:27;24.47;;;17.23;;
17937;SDS011;16051;53.024;8.630;2023-02-15T17:51:32;25.00;;;16.43;;
17937;SDS011;16051;53.024;8.630;2023-02-15T17:55:35;25.80;;;16.90;;
17937;SDS011;16051;53.024;8.630;2023-02-15T17:59:47;23.90;;;16.43;;
17937;SDS011;16051;53.024;8.630;2023-02-15T18:04:09;23.53;;;15.80;;
17937;SDS011;16051;53.024;8.630;2023-02-15T18:08:32;24.30;;;17.23;;
17937;SDS011;16051;53.024;8.630;2023-02-15T18:12:51;24.43;;;16.73;;
17937;SDS011;16051;53.024;8.630;2023-02-15T18:16:53;28.57;;;17.17;;
17937;SDS011;16051;53.024;8.630;2023-02-15T18:20:57;30.77;;;17.03;;
17937;SDS011;16051;53.024;8.630;2023-02-15T18:24:59;23.90;;;16.33;;
17937;SDS011;16051;53.024;8.630;2023-02-15T18:29:02;23.60;;;16.17;;
17937;SDS011;16051;53.024;8.630;2023-02-15T18:33:04;26.60;;;17.03;;
17937;SDS011;16051;53.024;8.630;2023-02-15T18:37:09;24.53;;;16.40;;
17937;SDS011;16051;53.024;8.630;2023-02-15T18:41:17;35.73;;;23.77;;
17937;SDS011;16051;53.024;8.630;2023-02-15T18:45:21;29.33;;;20.90;;
17937;SDS011;16051;53.024;8.630;2023-02-15T18:49:27;30.83;;;19.63;;
17937;SDS011;16051;53.024;8.630;2023-02-15T18:53:31;29.97;;;19.57;;
17937;SDS011;16051;53.024;8.630;2023-02-15T19:02:00;26.70;;;18.57;;
17937;SDS011;16051;53.024;8.630;2023-02-15T19:15:03;25.60;;;16.97;;
17937;SDS011;16051;53.024;8.630;2023-02-15T19:19:06;27.67;;;19.10;;
17937;SDS011;16051;53.024;8.630;2023-02-15T19:23:11;28.33;;;19.50;;
17937;SDS011;16051;53.024;8.630;2023-02-15T19:27:21;25.77;;;18.93;;
17937;SDS011;16051;53.024;8.630;2023-02-15T19:31:43;28.00;;;18.50;;
17937;SDS011;16051;53.024;8.630;2023-02-15T19:35:45;28.30;;;19.13;;
17937;SDS011;16051;53.024;8.630;2023-02-15T19:39:53;33.13;;;21.73;;
17937;SDS011;16051;53.024;8.630;2023-02-15T19:43:56;37.97;;;23.83;;
17937;SDS011;16051;53.024;8.630;2023-02-15T19:48:00;33.10;;;20.97;;
17937;SDS011;16051;53.024;8.630;2023-02-15T19:52:13;29.60;;;19.10;;
17937;SDS011;16051;53.024;8.630;2023-02-15T19:56:20;25.57;;;17.43;;
17937;SDS011;16051;53.024;8.630;2023-02-15T20:00:27;25.40;;;17.53;;
17937;SDS011;16051;53.024;8.630;2023-02-15T20:04:32;24.47;;;16.77;;
17937;SDS011;16051;53.024;8.630;2023-02-15T20:08:34;25.90;;;17.20;;
17937;SDS011;16051;53.024;8.630;2023-02-15T20:12:38;28.07;;;17.37;;
17937;SDS011;16051;53.024;8.630;2023-02-15T20:16:42;26.17;;;18.87;;
17937;SDS011;16051;53.024;8.630;2023-02-15T20:20:45;31.10;;;20.50;;
17937;SDS011;16051;53.024;8.630;2023-02-15T20:24:49;26.07;;;18.97;;
17937;SDS011;16051;53.024;8.630;2023-02-15T20:29:12;30.80;;;20.13;;
17937;SDS011;16051;53.024;8.630;2023-02-15T20:33:16;28.90;;;19.80;;
17937;SDS011;16051;53.024;8.630;2023-02-15T20:37:21;31.93;;;21.40;;
17937;SDS011;16051;53.024;8.630;2023-02-15T20:45:50;28.10;;;17.93;;
17937;SDS011;16051;53.024;8.630;2023-02-15T20:49:54;47.50;;;29.83;;
17937;SDS011;16051;53.024;8.630;2023-02-15T20:53:58;33.30;;;20.87;;
17937;SDS011;16051;53.024;8.630;2023-02-15T20:58:00;32.83;;;21.70;;
17937;SDS011;16051;53.024;8.630;2023-02-15T21:02:09;39.60;;;25.40;;
17937;SDS011;16051;53.024;8.630;2023-02-15T21:06:21;38.30;;;24.77;;
17937;SDS011;16051;53.024;8.630;2023-02-15T21:10:24;37.33;;;24.70;;
17937;SDS011;16051;53.024;8.630;2023-02-15T21:14:30;33.43;;;22.07;;
17937;SDS011;16051;53.024;8.630;2023-02-15T21:18:32;31.57;;;19.93;;
17937;SDS011;16051;53.024;8.630;2023-02-15T21:22:45;28.80;;;18.67;;
17937;SDS011;16051;53.024;8.630;2023-02-15T21:26:48;30.80;;;21.23;;
17937;SDS011;16051;53.024;8.630;2023-02-15T21:30:53;31.83;;;21.47;;
17937;SDS011;16051;53.024;8.630;2023-02-15T21:35:05;32.37;;;20.63;;
17937;SDS011;16051;53.024;8.630;2023-02-15T21:39:13;30.10;;;18.37;;
17937;SDS011;16051;53.024;8.630;2023-02-15T21:57:13;24.47;;;17.10;;
17937;SDS011;16051;53.024;8.630;2023-02-15T22:01:19;26.83;;;16.77;;
17937;SDS011;16051;53.024;8.630;2023-02-15T22:05:24;26.90;;;17.53;;
17937;SDS011;16051;53.024;8.630;2023-02-15T22:09:34;23.77;;;16.83;;
17937;SDS011;16051;53.024;8.630;2023-02-15T22:18:00;25.60;;;17.47;;
17937;SDS011;16051;53.024;8.630;2023-02-15T22:22:03;24.43;;;17.13;;
17937;SDS011;16051;53.024;8.630;2023-02-15T22:26:12;30.50;;;18.23;;
17937;SDS011;16051;53.024;8.630;2023-02-15T22:30:24;29.83;;;18.63;;
17937;SDS011;16051;53.024;8.630;2023-02-15T22:34:30;27.27;;;17.57;;
17937;SDS011;16051;53.024;8.630;2023-02-15T22:38:33;27.33;;;17.43;;
17937;SDS011;16051;53.024;8.630;2023-02-15T22:42:35;25.53;;;16.63;;
17937;SDS011;16051;53.024;8.630;2023-02-15T22:46:38;26.43;;;17.73;;
17937;SDS011;16051;53.024;8.630;2023-02-15T22:50:41;26.40;;;16.87;;
17937;SDS011;16051;53.024;8.630;2023-02-15T22:54:49;29.80;;;17.47;;
17937;SDS011;16051;53.024;8.630;2023-02-15T22:58:51;28.37;;;17.20;;
17937;SDS011;16051;53.024;8.630;2023-02-15T23:03:12;30.30;;;19.00;;
17937;SDS011;16051;53.024;8.630;2023-02-15T23:07:18;35.10;;;20.20;;
17937;SDS011;16051;53.024;8.630;2023-02-15T23:11:22;31.80;;;19.30;;
17937;SDS011;16051;53.024;8.630;2023-02-15T23:15:24;33.80;;;20.53;;
17937;SDS011;16051;53.024;8.630;2023-02-15T23:19:27;31.53;;;20.13;;
17937;SDS011;16051;53.024;8.630;2023-02-15T23:23:31;32.83;;;21.83;;
17937;SDS011;16051;53.024;8.630;2023-02-15T23:27:36;36.97;;;21.23;;
17937;SDS011;16051;53.024;8.630;2023-02-15T23:31:57;33.10;;;21.27;;
17937;SDS011;16051;53.024;8.630;2023-02-15T23:36:00;34.53;;;21.37;;
17937;SDS011;16051;53.024;8.630;2023-02-15T23:40:03;33.37;;;20.73;;
17937;SDS011;16051;53.024;8.630;2023-02-15T23:44:29;38.67;;;22.23;;
17937;SDS011;16051;53.024;8.630;2023-02-15T23:48:33;34.03;;;21.77;;
17937;SDS011;16051;53.024;8.630;2023-02-15T23:52:40;33.87;;;19.87;;
17937;SDS011;16051;53.024;8.630;2023-02-15T23:56:43;34.43;;;22.37;;
